Disclaimer

Please do not use the information listed here in-flight or in-navigation, as they are not provided to us by the airports but are provided by volunteers, so they might be outdated.

Search


Regions


Airport information page

Radio informations:
Brisbane Center - 122.1 MHz
Common traffic adv. frequency (CTAF) - 126.7 MHz

Airport informations:
Latitude: 12° 40' 43.00" S
Longitude: 141° 55' 31.00" E
Elevation: 63 feet - 19 meters
Operating hours: N/A
Operating agency: Civil government, landing fees and diplomatic clearance may be required
Timezone: UTC+10
Fuel: Jet A1, without icing nhibitor.

80/87 octane gasoline, leaded, MIL-L-5572F (RED)

100/130 MIL Spec, low lead, aviation gasoline (BLUE)

Runway information:
12/30 - 5397 x 98 feet< - >1645 x 30 meters

Recent METARs:
YBWP 142000Z AUTO 16004KT 9999 // NCD 22/20 Q1011
YBWP 142100Z AUTO 15005KT 9999 // NCD 25/20 Q1012
YBWP 142100Z AUTO 15005KT 9999 // NCD 25/20 Q1012

Airport on the map: